TimePST,TemperatureF,Dew PointF,Humidity,Sea Level PressureIn,VisibilityMPH,Wind Direction,Wind SpeedMPH,Gust SpeedMPH,PrecipitationIn,Events,Conditions,WindDirDegrees,DateUTC
12:51 AM,48.0,25.0,41,30.06,10.0,Calm,Calm,-,N/A,,Clear,0,2013-01-21 08:51:00
1:51 AM,52.0,19.9,28,30.04,10.0,East,5.8,-,N/A,,Clear,80,2013-01-21 09:51:00
2:51 AM,61.0,12.0,15,30.03,10.0,East,12.7,-,N/A,,Clear,90,2013-01-21 10:51:00
3:51 AM,64.0,9.0,12,30.01,10.0,East,16.1,-,N/A,,Clear,90,2013-01-21 11:51:00
4:51 AM,64.0,9.0,12,30.02,10.0,East,15.0,-,N/A,,Clear,100,2013-01-21 12:51:00
5:51 AM,64.9,9.0,11,30.01,10.0,East,17.3,-,N/A,,Clear,80,2013-01-21 13:51:00
6:51 AM,64.9,8.1,11,30.02,10.0,East,12.7,-,N/A,,Clear,100,2013-01-21 14:51:00
7:51 AM,64.9,9.0,11,30.04,10.0,East,11.5,-,N/A,,Clear,100,2013-01-21 15:51:00
8:51 AM,70.0,10.9,10,30.07,10.0,East,12.7,-,N/A,,Clear,100,2013-01-21 16:51:00
9:51 AM,73.9,10.0,9,30.09,10.0,East,20.7,71.3,N/A,,Clear,90,2013-01-21 17:51:00
10:51 AM,78.1,7.0,7,30.10,10.0,ENE,19.6,27.6,N/A,,Clear,70,2013-01-21 18:51:00
11:51 AM,79.0,7.0,6,30.07,10.0,East,18.4,28.8,N/A,,Clear,80,2013-01-21 19:51:00
12:51 PM,81.0,6.1,6,30.04,10.0,East,19.6,24.2,N/A,,Clear,80,2013-01-21 20:51:00
1:51 PM,81.0,3.9,5,30.02,10.0,East,18.4,25.3,N/A,,Clear,80,2013-01-21 21:51:00
2:51 PM,81.0,6.1,6,30.02,10.0,East,16.1,23.0,N/A,,Clear,80,2013-01-21 22:51:00
3:51 PM,79.0,3.0,5,30.00,10.0,East,16.1,21.9,N/A,,Clear,80,2013-01-21 23:51:00
4:51 PM,75.9,5.0,6,29.99,10.0,East,12.7,-,N/A,,Clear,80,2013-01-22 00:51:00
5:51 PM,73.0,5.0,7,30.01,10.0,ESE,5.8,-,N/A,,Clear,110,2013-01-22 01:51:00
6:51 PM,68.0,7.0,9,30.02,10.0,East,8.1,-,N/A,,Clear,100,2013-01-22 02:51:00
7:51 PM,52.0,43.0,71,30.04,10.0,WNW,5.8,-,N/A,,Clear,300,2013-01-22 03:51:00
8:51 PM,51.1,37.0,59,30.07,10.0,Calm,Calm,-,N/A,,Clear,0,2013-01-22 04:51:00
9:51 PM,55.0,25.0,31,30.08,10.0,ENE,6.9,-,N/A,,Clear,60,2013-01-22 05:51:00
11:51 PM,53.1,21.0,29,30.06,10.0,Calm,Calm,-,N/A,,Clear,0,2013-01-22 07:51:00